Time;durP1;ratioP1;P1;durP2;ratioP2;P2;SDS_P1;SDS_P2;PMS_P1;PMS_P2;Temp;Humidity;BMP_temperature;BMP_pressure;BME280_temperature;BME280_humidity;BME280_pressure;Samples;Min_cycle;Max_cycle;Signal;HPM_P1;HPM_P2
2022/07/23 00:00:29;;;;;;;6.55;2.22;;;18.80;79.60;;;;;;5069920;28;20036;-74
2022/07/23 00:02:56;;;;;;;9.32;2.65;;;18.70;79.90;;;;;;5070250;28;20013;-74
2022/07/23 00:05:21;;;;;;;5.20;2.88;;;18.70;80.00;;;;;;5068950;28;20025;-73
2022/07/23 00:07:47;;;;;;;6.35;2.35;;;18.70;80.30;;;;;;5064598;28;20187;-74
2022/07/23 00:10:13;;;;;;;5.22;2.95;;;18.60;80.20;;;;;;5068060;28;20040;-75
2022/07/23 00:12:39;;;;;;;4.97;2.60;;;18.60;80.50;;;;;;5070641;28;20122;-75
2022/07/23 00:15:06;;;;;;;4.30;2.60;;;18.60;80.70;;;;;;5070736;28;20020;-75
2022/07/23 00:17:32;;;;;;;7.20;3.35;;;18.50;80.50;;;;;;5069625;28;20061;-75
2022/07/23 00:20:00;;;;;;;6.20;2.78;;;18.50;80.70;;;;;;5068765;28;20115;-75
2022/07/23 00:22:28;;;;;;;4.95;2.88;;;18.50;80.80;;;;;;5071120;28;20383;-75
2022/07/23 00:24:55;;;;;;;5.97;3.00;;;18.40;80.50;;;;;;5070376;28;20040;-75
2022/07/23 00:27:21;;;;;;;6.28;3.20;;;18.40;80.80;;;;;;5071310;28;20028;-74
2022/07/23 00:29:46;;;;;;;7.82;3.28;;;18.30;80.90;;;;;;5069540;28;20020;-74
2022/07/23 00:32:12;;;;;;;5.55;2.35;;;18.30;81.20;;;;;;5070896;28;20113;-74
2022/07/23 00:34:37;;;;;;;6.70;3.00;;;18.30;81.10;;;;;;5070857;28;20020;-74
2022/07/23 00:37:03;;;;;;;6.25;2.97;;;18.30;81.30;;;;;;5071117;28;20805;-75
2022/07/23 00:39:29;;;;;;;5.80;2.88;;;18.30;81.20;;;;;;5071027;28;20033;-75
2022/07/23 00:41:54;;;;;;;6.63;3.63;;;18.20;81.40;;;;;;5056199;28;20052;-75
2022/07/23 00:44:25;;;;;;;5.22;2.65;;;18.20;81.60;;;;;;5070737;28;20112;-74
2022/07/23 00:46:53;;;;;;;5.13;3.25;;;18.10;81.80;;;;;;5071052;28;20036;-74
2022/07/23 00:49:29;;;;;;;8.65;4.13;;;18.10;81.80;;;;;;5070787;28;20081;-74
2022/07/23 00:51:56;;;;;;;5.47;3.10;;;18.10;81.80;;;;;;5058390;28;20029;-75
2022/07/23 00:54:24;;;;;;;5.85;3.22;;;18.10;81.90;;;;;;5069766;28;20074;-73
2022/07/23 00:56:49;;;;;;;6.93;3.08;;;18.00;82.10;;;;;;5070625;28;20027;-73
2022/07/23 00:59:15;;;;;;;9.88;3.90;;;18.00;82.10;;;;;;5069208;28;20025;-73
2022/07/23 01:01:41;;;;;;;7.70;4.15;;;18.00;82.00;;;;;;5070870;28;20032;-75
2022/07/23 01:04:07;;;;;;;8.00;3.65;;;18.00;82.20;;;;;;5070804;28;20078;-74
2022/07/23 01:06:38;;;;;;;6.15;3.97;;;18.00;82.40;;;;;;5069433;28;20467;-74
2022/07/23 01:09:05;;;;;;;7.43;3.83;;;17.90;82.40;;;;;;5068664;28;20028;-73
2022/07/23 01:11:33;;;;;;;6.25;3.53;;;17.90;82.30;;;;;;5069562;28;20028;-73
2022/07/23 01:14:08;;;;;;;7.75;3.70;;;17.80;82.50;;;;;;5069986;28;20487;-75
2022/07/23 01:16:33;;;;;;;7.90;4.32;;;17.70;82.70;;;;;;5069872;28;20029;-74
2022/07/23 01:18:59;;;;;;;5.72;3.53;;;17.80;82.90;;;;;;5070185;28;20026;-74
2022/07/23 01:21:29;;;;;;;8.98;3.50;;;17.70;83.00;;;;;;5071286;28;20535;-74
2022/07/23 01:23:55;;;;;;;;;;;17.70;83.10;;;;;;5073286;28;20519;-75
2022/07/23 01:26:20;;;;;;;9.65;4.00;;;17.60;83.00;;;;;;5077191;28;19916;-75
2022/07/23 01:28:48;;;;;;;8.40;4.57;;;17.70;83.10;;;;;;5071130;28;20020;-74
2022/07/23 01:31:14;;;;;;;6.20;3.70;;;17.60;83.40;;;;;;5070302;28;20025;-74
2022/07/23 01:33:39;;;;;;;6.80;3.80;;;17.60;83.60;;;;;;5070103;28;20055;-74
2022/07/23 01:36:05;;;;;;;7.28;3.83;;;17.50;83.60;;;;;;5070691;28;20021;-75
2022/07/23 01:38:32;;;;;;;7.55;4.07;;;17.50;84.00;;;;;;5069220;28;20020;-75
2022/07/23 01:40:57;;;;;;;7.55;4.45;;;17.50;83.80;;;;;;5062321;28;20047;-74
2022/07/23 01:43:23;;;;;;;9.50;4.40;;;17.50;83.70;;;;;;5063241;28;20021;-74
2022/07/23 01:45:49;;;;;;;8.85;3.88;;;17.50;83.70;;;;;;5065776;28;20019;-74
2022/07/23 01:48:15;;;;;;;7.65;4.00;;;17.50;83.60;;;;;;5070580;28;20032;-74
2022/07/23 01:50:40;;;;;;;11.70;4.30;;;17.50;83.60;;;;;;5066371;28;20024;-74
2022/07/23 01:53:07;;;;;;;7.88;4.57;;;17.40;83.80;;;;;;5066327;28;20497;-74
2022/07/23 01:55:33;;;;;;;7.05;3.65;;;17.40;83.90;;;;;;5069595;28;20021;-74
2022/07/23 01:57:59;;;;;;;10.55;3.63;;;17.30;83.80;;;;;;5069629;28;20027;-74
2022/07/23 02:00:24;;;;;;;6.85;3.55;;;17.40;83.80;;;;;;5069560;28;20479;-74
2022/07/23 02:02:50;;;;;;;6.05;3.92;;;17.30;83.70;;;;;;5069788;28;20092;-76
2022/07/23 02:05:15;;;;;;;9.23;3.88;;;17.30;83.80;;;;;;5068219;28;20471;-74
2022/07/23 02:07:42;;;;;;;5.00;3.50;;;17.30;83.80;;;;;;5069720;28;20066;-74
2022/07/23 02:10:08;;;;;;;9.15;3.95;;;17.30;83.80;;;;;;5067999;28;20033;-74
2022/07/23 02:12:34;;;;;;;6.45;3.35;;;17.30;83.80;;;;;;5069842;28;20113;-74
2022/07/23 02:14:59;;;;;;;9.82;3.78;;;17.20;83.80;;;;;;5070161;28;20052;-74
2022/07/23 02:17:25;;;;;;;8.02;3.80;;;17.20;83.70;;;;;;5069798;28;20024;-74
2022/07/23 02:19:50;;;;;;;6.20;3.88;;;17.20;83.70;;;;;;5069731;28;20032;-74
2022/07/23 02:22:16;;;;;;;6.68;3.90;;;17.20;83.60;;;;;;5069149;28;20132;-74
2022/07/23 02:24:42;;;;;;;8.95;3.65;;;17.20;83.60;;;;;;5068580;28;20027;-75
2022/07/23 02:27:07;;;;;;;8.25;4.20;;;17.20;83.60;;;;;;5069658;28;20040;-74
2022/07/23 02:29:33;;;;;;;7.45;3.15;;;17.20;83.50;;;;;;5069647;28;20031;-74
2022/07/23 02:31:59;;;;;;;5.30;3.30;;;17.20;83.40;;;;;;5069688;28;20032;-75
2022/07/23 02:34:24;;;;;;;8.05;3.50;;;17.20;83.70;;;;;;5050821;28;20036;-74
2022/07/23 02:36:50;;;;;;;6.38;3.70;;;17.20;83.60;;;;;;5060131;28;20024;-74
2022/07/23 02:39:15;;;;;;;6.78;3.70;;;17.20;83.60;;;;;;5069460;28;20034;-75
2022/07/23 02:41:41;;;;;;;5.43;2.80;;;17.20;83.60;;;;;;5067671;28;20045;-75
2022/07/23 02:44:07;;;;;;;6.75;3.75;;;17.20;83.50;;;;;;5069967;28;20103;-75
2022/07/23 02:46:32;;;;;;;7.18;3.13;;;17.20;83.40;;;;;;5069233;28;20032;-75
2022/07/23 02:48:58;;;;;;;7.72;3.40;;;17.20;83.40;;;;;;5069330;28;20599;-75
2022/07/23 02:51:23;;;;;;;5.20;3.00;;;17.20;83.40;;;;;;5068013;28;20036;-75
2022/07/23 02:53:49;;;;;;;8.30;3.10;;;17.20;83.40;;;;;;5067151;28;20094;-75
2022/07/23 02:56:14;;;;;;;5.78;3.08;;;17.10;83.20;;;;;;5069188;28;20036;-74
2022/07/23 02:58:40;;;;;;;8.18;3.15;;;17.20;83.20;;;;;;5072926;28;20085;-75
2022/07/23 03:01:05;;;;;;;4.88;2.75;;;17.10;83.30;;;;;;5073400;28;20174;-74
2022/07/23 03:03:32;;;;;;;5.05;2.75;;;17.10;83.40;;;;;;5072852;28;20035;-74
2022/07/23 03:05:58;;;;;;;7.43;3.15;;;17.10;83.50;;;;;;5072741;28;20036;-74
2022/07/23 03:08:24;;;;;;;3.92;2.30;;;17.10;83.40;;;;;;5072546;28;20140;-74
2022/07/23 03:10:49;;;;;;;8.55;3.03;;;17.10;83.60;;;;;;5072819;28;20383;-74
2022/07/23 03:13:15;;;;;;;7.18;3.05;;;17.10;83.80;;;;;;5072898;28;20025;-74
2022/07/23 03:15:41;;;;;;;6.95;2.80;;;17.10;83.70;;;;;;5072797;28;20069;-75
2022/07/23 03:18:06;;;;;;;6.10;3.15;;;17.10;83.60;;;;;;5072067;28;20135;-74
2022/07/23 03:20:32;;;;;;;7.40;2.90;;;17.10;83.60;;;;;;5072698;28;20115;-72
2022/07/23 03:22:57;;;;;;;4.80;2.33;;;17.10;83.60;;;;;;5071358;28;20394;-74
2022/07/23 03:25:23;;;;;;;11.55;2.42;;;17.10;83.60;;;;;;5072643;28;20099;-74
2022/07/23 03:27:49;;;;;;;5.13;2.00;;;17.10;83.70;;;;;;5072673;28;20106;-73
2022/07/23 03:30:15;;;;;;;5.88;3.03;;;17.00;83.60;;;;;;5072551;28;20031;-74
2022/07/23 03:32:40;;;;;;;3.88;2.20;;;17.00;83.60;;;;;;5070461;28;20445;-74
2022/07/23 03:35:06;;;;;;;4.20;2.10;;;17.00;83.80;;;;;;5072365;28;20108;-74
2022/07/23 03:37:32;;;;;;;4.30;2.20;;;17.00;83.90;;;;;;5072112;28;20070;-74
2022/07/23 03:39:57;;;;;;;4.90;2.55;;;17.00;83.80;;;;;;5071915;28;20080;-73
2022/07/23 03:42:23;;;;;;;5.20;2.42;;;17.00;83.80;;;;;;5072276;28;20024;-75
2022/07/23 03:44:48;;;;;;;5.80;2.55;;;17.00;83.90;;;;;;5072028;28;20465;-75
2022/07/23 03:47:16;;;;;;;3.95;2.17;;;17.00;83.70;;;;;;5073487;28;20028;-75
2022/07/23 03:49:42;;;;;;;6.18;2.80;;;16.90;83.70;;;;;;5071586;28;20044;-74
2022/07/23 03:52:08;;;;;;;4.93;2.58;;;16.90;83.80;;;;;;5057217;28;20153;-75
2022/07/23 03:54:34;;;;;;;4.07;2.35;;;16.90;84.00;;;;;;5068707;28;20096;-75
2022/07/23 03:56:59;;;;;;;4.72;2.33;;;16.90;84.00;;;;;;5071910;28;20104;-74
2022/07/23 03:59:25;;;;;;;10.10;4.00;;;16.90;84.00;;;;;;5071565;28;20054;-74
2022/07/23 04:01:50;;;;;;;8.15;2.70;;;16.90;84.10;;;;;;5072147;28;20028;-73
2022/07/23 04:04:16;;;;;;;6.03;3.00;;;16.90;83.70;;;;;;5064465;28;20030;-74
2022/07/23 04:06:42;;;;;;;7.47;2.95;;;16.90;83.70;;;;;;5062200;28;20096;-73
2022/07/23 04:09:07;;;;;;;6.95;2.95;;;17.00;84.10;;;;;;5070284;28;20032;-74
2022/07/23 04:11:34;;;;;;;7.63;3.25;;;17.00;84.00;;;;;;5069626;28;20466;-73
2022/07/23 04:13:59;;;;;;;9.80;3.00;;;17.00;84.00;;;;;;5069889;28;20037;-73
2022/07/23 04:16:25;;;;;;;8.38;2.85;;;17.00;84.10;;;;;;5071421;28;20071;-73
2022/07/23 04:18:51;;;;;;;6.32;2.72;;;17.00;84.40;;;;;;5070699;28;20173;-74
2022/07/23 04:21:16;;;;;;;6.90;2.60;;;17.00;84.50;;;;;;5060524;28;20040;-74
2022/07/23 04:23:44;;;;;;;5.25;2.95;;;17.00;84.50;;;;;;5069343;28;20039;-75
2022/07/23 04:26:10;;;;;;;5.43;2.65;;;17.00;84.50;;;;;;5069358;28;20475;-73
2022/07/23 04:28:35;;;;;;;5.75;2.85;;;17.00;84.50;;;;;;5068093;28;20028;-74
2022/07/23 04:31:01;;;;;;;5.93;2.70;;;17.00;84.60;;;;;;5069309;28;20094;-74
2022/07/23 04:33:26;;;;;;;9.05;3.00;;;17.00;84.80;;;;;;5069481;28;20042;-74
2022/07/23 04:35:52;;;;;;;9.50;3.08;;;17.00;84.90;;;;;;5069417;28;20103;-74
2022/07/23 04:38:18;;;;;;;5.50;2.78;;;17.00;84.80;;;;;;5067630;28;20023;-74
2022/07/23 04:40:43;;;;;;;5.90;2.60;;;17.00;84.70;;;;;;5068252;28;20044;-74
2022/07/23 04:43:12;;;;;;;6.22;2.70;;;17.10;84.60;;;;;;5069512;28;20046;-73
2022/07/23 04:45:37;;;;;;;5.22;2.22;;;17.10;84.60;;;;;;5070617;28;20025;-73
2022/07/23 04:48:03;;;;;;;7.85;2.63;;;17.10;84.40;;;;;;5070410;28;20413;-73
2022/07/23 04:50:29;;;;;;;5.00;2.80;;;17.20;84.50;;;;;;5054257;28;20031;-73
2022/07/23 04:52:54;;;;;;;5.78;2.45;;;17.20;84.40;;;;;;5070807;28;20406;-72
2022/07/23 04:55:20;;;;;;;6.90;2.97;;;17.20;84.40;;;;;;5070388;28;20028;-72
2022/07/23 04:57:46;;;;;;;4.72;2.13;;;17.30;84.50;;;;;;5067185;28;20158;-74
2022/07/23 05:00:12;;;;;;;7.05;2.88;;;17.30;84.30;;;;;;5070857;28;20020;-74
2022/07/23 05:02:37;;;;;;;3.60;2.20;;;17.30;84.10;;;;;;5070495;28;20455;-74
2022/07/23 05:05:03;;;;;;;4.55;2.60;;;17.40;84.00;;;;;;5070243;28;20115;-74
2022/07/23 05:07:29;;;;;;;6.13;2.30;;;17.40;83.90;;;;;;5070355;28;20028;-74
2022/07/23 05:09:55;;;;;;;4.43;2.17;;;17.50;83.90;;;;;;5070359;28;20024;-74
2022/07/23 05:12:20;;;;;;;8.00;2.50;;;17.50;83.90;;;;;;5068579;28;20032;-73
2022/07/23 05:14:46;;;;;;;4.63;1.92;;;17.60;83.60;;;;;;5069365;28;20052;-74
2022/07/23 05:17:11;;;;;;;4.30;2.08;;;17.70;83.10;;;;;;5068532;28;20021;-74
2022/07/23 05:19:37;;;;;;;5.72;1.92;;;17.80;83.00;;;;;;5068667;28;20035;-74
2022/07/23 05:22:03;;;;;;;7.15;2.78;;;17.80;82.70;;;;;;5068887;28;20091;-74
2022/07/23 05:24:31;;;;;;;6.68;2.42;;;17.90;82.20;;;;;;5070475;28;20020;-74
2022/07/23 05:26:56;;;;;;;4.55;1.55;;;17.90;81.60;;;;;;5069724;28;20020;-75
2022/07/23 05:29:22;;;;;;;5.32;1.90;;;18.00;81.20;;;;;;5070512;28;20459;-74
2022/07/23 05:31:48;;;;;;;4.15;1.65;;;18.10;80.80;;;;;;5070236;28;20052;-74
2022/07/23 05:34:13;;;;;;;5.22;1.73;;;18.20;81.00;;;;;;5068346;28;20406;-74
2022/07/23 05:36:39;;;;;;;4.40;1.95;;;18.20;81.10;;;;;;5070059;28;20105;-75
2022/07/23 05:39:04;;;;;;;7.38;1.60;;;18.30;81.30;;;;;;5070132;28;20036;-74
2022/07/23 05:41:30;;;;;;;4.95;1.67;;;18.40;80.60;;;;;;5069762;28;20057;-72
2022/07/23 05:43:56;;;;;;;3.17;1.33;;;18.50;79.80;;;;;;5069588;28;20025;-73
2022/07/23 05:46:21;;;;;;;4.35;1.13;;;18.60;78.70;;;;;;5070010;28;20040;-73
2022/07/23 05:48:49;;;;;;;5.10;1.38;;;18.60;78.20;;;;;;5069203;28;20398;-74
2022/07/23 05:51:20;;;;;;;3.60;1.10;;;18.60;77.60;;;;;;5059319;28;20067;-73
2022/07/23 05:53:46;;;;;;;3.95;1.40;;;18.70;77.80;;;;;;5063687;28;20028;-73
2022/07/23 05:56:12;;;;;;;5.03;1.40;;;18.80;77.20;;;;;;5068728;28;20032;-73
2022/07/23 05:58:37;;;;;;;4.00;1.40;;;18.80;76.60;;;;;;5069621;28;20074;-74
2022/07/23 06:01:03;;;;;;;3.28;1.02;;;18.90;76.30;;;;;;5069623;28;20111;-74
2022/07/23 06:03:31;;;;;;;3.45;1.10;;;19.00;76.10;;;;;;5064700;28;20032;-75
2022/07/23 06:05:56;;;;;;;2.25;0.80;;;19.10;75.70;;;;;;5059118;28;20016;-75
2022/07/23 06:08:22;;;;;;;1.33;0.80;;;19.40;76.00;;;;;;5058399;28;20185;-76
2022/07/23 06:10:48;;;;;;;0.80;0.50;;;19.80;75.60;;;;;;5060440;28;20025;-75
2022/07/23 06:13:18;;;;;;;1.33;0.70;;;20.10;75.00;;;;;;5059598;28;20048;-74
2022/07/23 06:15:44;;;;;;;1.95;0.60;;;20.40;74.30;;;;;;5062805;28;20028;-75
2022/07/23 06:18:10;;;;;;;2.50;0.60;;;20.70;73.80;;;;;;5064828;28;20025;-75
2022/07/23 06:20:36;;;;;;;2.38;0.80;;;21.00;73.30;;;;;;5068698;28;20650;-75
2022/07/23 06:23:01;;;;;;;1.33;0.60;;;21.30;72.60;;;;;;5058918;28;20045;-74
2022/07/23 06:25:27;;;;;;;2.40;0.63;;;21.40;72.10;;;;;;5065994;28;20023;-76
2022/07/23 06:27:53;;;;;;;1.75;0.57;;;21.50;71.90;;;;;;5056841;28;20451;-74
2022/07/23 06:30:22;;;;;;;2.58;0.70;;;21.60;71.40;;;;;;5063093;28;20021;-76
2022/07/23 06:32:48;;;;;;;2.30;0.70;;;21.70;71.20;;;;;;5064045;28;20033;-76
2022/07/23 06:35:15;;;;;;;2.53;1.05;;;21.80;70.70;;;;;;5066373;28;20021;-75
2022/07/23 06:37:42;;;;;;;2.85;0.95;;;21.80;70.20;;;;;;5062112;28;20075;-76
2022/07/23 06:40:08;;;;;;;3.90;1.00;;;21.90;69.90;;;;;;5065403;28;20082;-75
2022/07/23 06:42:36;;;;;;;3.42;1.25;;;22.00;69.10;;;;;;5060084;28;20025;-75
2022/07/23 06:45:03;;;;;;;2.80;0.90;;;22.00;68.90;;;;;;5064531;28;20032;-73
2022/07/23 06:47:28;;;;;;;1.15;0.75;;;22.00;68.80;;;;;;5059906;28;20024;-75
2022/07/23 06:49:54;;;;;;;2.63;0.90;;;22.10;68.50;;;;;;5065401;28;20020;-75
2022/07/23 06:52:20;;;;;;;1.58;0.60;;;22.10;68.40;;;;;;5064393;28;20384;-76
2022/07/23 06:54:45;;;;;;;1.48;0.90;;;22.30;68.00;;;;;;5063608;28;20035;-76
2022/07/23 06:57:11;;;;;;;2.47;1.00;;;22.40;67.60;;;;;;5063819;28;20648;-76
2022/07/23 06:59:40;;;;;;;2.88;1.08;;;22.40;67.00;;;;;;5062280;28;20028;-75
2022/07/23 07:02:06;;;;;;;1.92;0.82;;;22.30;67.00;;;;;;5066950;28;20023;-76
2022/07/23 07:04:32;;;;;;;2.55;1.00;;;22.40;67.00;;;;;;5063212;28;20020;-76
2022/07/23 07:06:58;;;;;;;4.07;1.00;;;22.40;66.70;;;;;;5070233;28;20020;-75
2022/07/23 07:09:23;;;;;;;5.97;1.23;;;22.40;66.50;;;;;;5073354;28;20435;-77
2022/07/23 07:11:49;;;;;;;2.60;1.20;;;22.40;66.20;;;;;;5073036;28;20013;-76
2022/07/23 07:14:15;;;;;;;1.98;1.00;;;22.30;66.50;;;;;;5071533;28;20083;-76
2022/07/23 07:16:40;;;;;;;2.45;0.88;;;22.40;66.50;;;;;;5072676;28;20024;-76
2022/07/23 07:19:06;;;;;;;4.15;1.25;;;22.50;65.70;;;;;;5072543;28;20092;-76
2022/07/23 07:21:32;;;;;;;2.25;0.75;;;22.60;63.90;;;;;;5070724;28;20494;-77
2022/07/23 07:23:57;;;;;;;5.15;0.90;;;22.80;62.80;;;;;;5072674;28;20028;-77
2022/07/23 07:26:23;;;;;;;3.08;0.90;;;22.90;61.30;;;;;;5072362;28;20021;-76
2022/07/23 07:28:50;;;;;;;3.28;0.80;;;23.00;61.80;;;;;;5072371;28;20040;-75
2022/07/23 07:31:15;;;;;;;4.28;0.90;;;23.00;62.30;;;;;;5071883;28;20095;-76
2022/07/23 07:33:41;;;;;;;4.38;1.63;;;22.80;62.10;;;;;;5072550;28;20041;-76
2022/07/23 07:36:07;;;;;;;6.18;1.48;;;22.90;61.00;;;;;;5075551;28;20028;-76
2022/07/23 07:38:32;;;;;;;4.68;1.00;;;23.00;59.60;;;;;;5065117;28;20017;-76
2022/07/23 07:40:58;;;;;;;5.75;1.13;;;22.80;59.50;;;;;;5070509;28;20051;-77
2022/07/23 07:43:24;;;;;;;4.43;0.77;;;22.50;60.40;;;;;;5064825;28;20025;-76
2022/07/23 07:45:49;;;;;;;3.67;1.15;;;22.40;61.30;;;;;;5053514;28;20471;-76
2022/07/23 07:48:15;;;;;;;3.47;1.25;;;22.40;61.30;;;;;;5065198;28;20049;-77
2022/07/23 07:50:41;;;;;;;5.03;1.20;;;22.50;61.30;;;;;;5055955;28;20558;-77
2022/07/23 07:53:06;;;;;;;2.50;1.00;;;22.50;61.10;;;;;;5067694;28;20387;-77
2022/07/23 07:55:32;;;;;;;3.28;1.00;;;22.50;61.00;;;;;;5070448;28;20108;-77
2022/07/23 07:57:58;;;;;;;4.40;0.85;;;22.50;61.40;;;;;;5070892;28;20544;-77
2022/07/23 08:00:23;;;;;;;4.88;1.40;;;22.50;61.30;;;;;;5070488;28;20352;-76
2022/07/23 08:02:52;;;;;;;4.07;1.55;;;22.60;61.30;;;;;;5069902;28;20596;-76
2022/07/23 08:05:22;;;;;;;4.32;1.05;;;22.70;61.50;;;;;;5070411;28;20698;-75
2022/07/23 08:07:48;;;;;;;;;;;22.90;60.90;;;;;;5069292;28;20111;-77
2022/07/23 08:10:14;;;;;;;3.45;0.88;;;23.00;61.00;;;;;;5070006;28;20521;-77
2022/07/23 08:12:47;;;;;;;3.75;1.02;;;23.10;60.80;;;;;;5070679;28;20025;-77
2022/07/23 08:15:15;;;;;;;3.10;1.52;;;23.10;60.00;;;;;;5069788;28;20110;-76
2022/07/23 08:17:42;;;;;;;4.47;1.10;;;23.10;59.90;;;;;;5069583;28;20131;-76
2022/07/23 08:20:10;;;;;;;2.88;0.88;;;23.10;60.10;;;;;;5058149;28;20024;-76
2022/07/23 08:22:54;;;;;;;6.18;1.83;;;23.20;60.10;;;;;;5060754;28;20020;-77
2022/07/23 08:25:23;;;;;;;3.70;0.77;;;23.30;60.20;;;;;;5061655;28;20379;-76
2022/07/23 08:27:50;;;;;;;5.00;1.00;;;23.40;59.80;;;;;;5068598;28;20127;-75
2022/07/23 08:30:16;;;;;;;3.33;1.15;;;23.60;59.40;;;;;;5069973;28;20661;-77
2022/07/23 08:32:55;;;;;;;5.22;1.38;;;23.70;59.20;;;;;;5070676;28;20048;-77
2022/07/23 08:35:35;;;;;;;3.20;1.20;;;23.80;59.90;;;;;;5068501;28;20082;-78
2022/07/23 08:38:04;;;;;;;3.85;1.08;;;24.00;59.10;;;;;;5067042;28;20024;-78
2022/07/23 08:40:32;;;;;;;2.08;1.10;;;24.10;58.30;;;;;;5069263;28;20054;-77
2022/07/23 08:43:07;;;;;;;1.98;0.70;;;24.20;58.10;;;;;;5068165;28;20075;-74
2022/07/23 08:45:39;;;;;;;2.03;1.15;;;24.10;58.30;;;;;;5071468;28;20020;-75
2022/07/23 08:48:08;;;;;;;4.03;1.58;;;24.00;58.70;;;;;;5071121;28;20032;-76
2022/07/23 08:50:36;;;;;;;3.95;1.35;;;24.10;58.30;;;;;;5071766;28;20016;-76
2022/07/23 08:53:05;;;;;;;2.03;0.80;;;24.20;56.80;;;;;;5071075;28;20037;-76
2022/07/23 08:55:30;;;;;;;4.70;1.38;;;24.30;58.50;;;;;;5069153;28;20040;-77
2022/07/23 08:57:56;;;;;;;5.85;0.95;;;24.50;57.40;;;;;;5051690;28;20510;-77
2022/07/23 09:00:22;;;;;;;2.35;1.00;;;24.50;57.30;;;;;;5055967;28;20036;-75
2022/07/23 09:02:49;;;;;;;6.85;1.95;;;24.60;57.70;;;;;;5070747;28;20027;-77
2022/07/23 09:05:16;;;;;;;3.10;1.40;;;24.50;57.00;;;;;;5070249;28;20021;-77
2022/07/23 09:08:10;;;;;;;4.35;1.63;;;24.50;54.40;;;;;;5070085;28;20025;-78
2022/07/23 09:10:57;;;;;;;5.18;1.13;;;24.60;55.30;;;;;;5069765;28;20520;-75
2022/07/23 09:13:27;;;;;;;3.17;1.10;;;24.70;57.90;;;;;;5056346;28;20086;-77
2022/07/23 09:15:55;;;;;;;6.95;1.90;;;24.60;58.20;;;;;;5067832;28;20039;-77
2022/07/23 09:18:29;;;;;;;5.47;1.20;;;24.60;54.40;;;;;;5061837;28;20029;-76
2022/07/23 09:21:07;;;;;;;5.15;1.55;;;24.70;57.10;;;;;;5065959;28;20021;-77
2022/07/23 09:23:43;;;;;;;4.93;1.92;;;25.00;57.40;;;;;;5047567;28;20109;-77
2022/07/23 09:26:29;;;;;;;4.47;1.67;;;25.10;55.20;;;;;;5065783;28;20031;-78
2022/07/23 09:29:09;;;;;;;3.92;1.40;;;25.20;54.90;;;;;;5069680;28;20027;-78
2022/07/23 09:31:43;;;;;;;3.28;1.20;;;25.30;55.00;;;;;;5068586;28;20021;-76
2022/07/23 09:34:32;;;;;;;2.60;0.90;;;25.40;54.90;;;;;;5067884;28;20035;-75
2022/07/23 09:37:09;;;;;;;3.75;1.08;;;25.50;55.20;;;;;;5067228;28;20029;-76
2022/07/23 09:39:35;;;;;;;5.13;1.30;;;25.40;57.10;;;;;;5067922;28;20108;-75
2022/07/23 09:42:24;;;;;;;2.67;1.38;;;25.40;55.10;;;;;;5069523;28;20165;-77
2022/07/23 09:44:56;;;;;;;7.77;2.30;;;25.50;53.40;;;;;;5068721;28;20035;-76
2022/07/23 09:47:24;;;;;;;3.03;1.27;;;25.60;51.60;;;;;;5069419;28;20025;-78
2022/07/23 09:50:00;;;;;;;4.35;1.30;;;25.60;53.20;;;;;;5068578;28;20032;-77
2022/07/23 09:52:33;;;;;;;6.07;1.70;;;25.60;52.40;;;;;;5069318;28;20052;-77
2022/07/23 09:55:05;;;;;;;1.67;0.95;;;25.80;52.40;;;;;;5069980;28;20393;-78
2022/07/23 09:57:32;;;;;;;1.52;0.95;;;26.00;52.60;;;;;;5069419;28;20020;-76
2022/07/23 10:00:01;;;;;;;3.78;1.40;;;26.20;52.20;;;;;;5070297;28;20052;-76
2022/07/23 10:02:31;;;;;;;2.67;1.15;;;26.40;50.00;;;;;;5069309;28;20021;-75
2022/07/23 10:04:57;;;;;;;5.07;2.53;;;26.60;53.50;;;;;;5068565;28;20028;-76
2022/07/23 10:07:26;;;;;;;2.97;1.10;;;26.60;50.40;;;;;;5069091;28;20035;-77
2022/07/23 10:09:52;;;;;;;2.40;1.00;;;26.60;50.10;;;;;;5069609;28;20107;-76
2022/07/23 10:14:59;;;;;;;5.50;1.45;;;26.90;53.60;;;;;;5069920;28;20042;-75
2022/07/23 10:17:27;;;;;;;6.63;1.80;;;26.90;51.10;;;;;;5069618;28;20019;-75
2022/07/23 10:19:53;;;;;;;4.93;2.22;;;27.00;51.00;;;;;;5070216;28;20032;-75
2022/07/23 10:22:25;;;;;;;2.15;1.00;;;27.00;48.90;;;;;;5069641;28;20031;-74
2022/07/23 10:25:00;;;;;;;3.15;1.20;;;27.10;51.10;;;;;;5069215;28;20248;-76
2022/07/23 10:27:44;;;;;;;1.70;0.95;;;27.00;54.20;;;;;;5069563;28;20107;-75
2022/07/23 10:30:33;;;;;;;3.17;0.85;;;27.00;55.40;;;;;;5069571;28;20139;-76
2022/07/23 10:33:32;;;;;;;5.77;2.00;;;27.10;56.50;;;;;;5069276;28;20031;-77
2022/07/23 10:36:07;;;;;;;3.05;1.40;;;27.20;50.00;;;;;;5050249;28;20023;-77
2022/07/23 10:39:05;;;;;;;5.43;2.28;;;27.40;49.30;;;;;;5072035;28;20013;-83
2022/07/23 10:41:39;;;;;;;3.40;1.70;;;27.50;48.40;;;;;;5071818;28;20059;-79
2022/07/23 10:44:23;;;;;;;4.43;1.80;;;27.50;48.50;;;;;;5069351;28;20100;-78
2022/07/23 10:49:31;;;;;;;3.03;0.93;;;27.70;47.60;;;;;;5069645;28;20028;-77
2022/07/23 10:52:15;;;;;;;3.58;1.75;;;27.80;51.00;;;;;;5068169;28;20049;-75
2022/07/23 10:54:42;;;;;;;3.03;1.42;;;27.80;52.20;;;;;;5065734;28;20052;-75
2022/07/23 10:57:12;;;;;;;3.60;1.75;;;27.70;53.20;;;;;;5069511;28;20028;-76
2022/07/23 11:00:00;;;;;;;4.22;1.90;;;27.60;51.30;;;;;;5069297;28;20340;-77
2022/07/23 11:02:27;;;;;;;4.35;2.13;;;27.60;47.60;;;;;;5069380;28;20050;-77
2022/07/23 11:04:53;;;;;;;8.13;2.55;;;27.50;51.00;;;;;;5069100;28;20107;-74
2022/07/23 11:07:19;;;;;;;2.58;1.20;;;27.50;49.30;;;;;;5068681;28;20174;-74
2022/07/23 11:09:48;;;;;;;3.53;1.50;;;27.50;50.90;;;;;;5068684;28;20480;-76
2022/07/23 11:12:24;;;;;;;4.68;1.60;;;27.50;48.90;;;;;;5072279;28;20028;-80
2022/07/23 11:15:11;;;;;;;4.97;1.63;;;27.50;47.00;;;;;;5072382;28;20031;-76
2022/07/23 11:17:57;;;;;;;2.97;1.35;;;27.40;48.40;;;;;;5073128;28;20096;-77
2022/07/23 11:20:24;;;;;;;3.47;1.73;;;27.50;48.80;;;;;;5074700;28;20032;-77
2022/07/23 11:22:52;;;;;;;8.43;2.20;;;27.70;48.00;;;;;;5068013;28;20024;-75
2022/07/23 11:25:21;;;;;;;3.00;1.50;;;27.80;47.30;;;;;;5063528;28;20036;-75
2022/07/23 11:27:49;;;;;;;4.38;1.80;;;27.90;47.40;;;;;;5072996;28;20083;-77
2022/07/23 11:30:26;;;;;;;2.35;1.25;;;28.00;45.40;;;;;;5067373;28;20024;-74
2022/07/23 11:32:54;;;;;;;2.58;1.10;;;28.20;52.60;;;;;;5062556;28;20108;-77
2022/07/23 11:35:25;;;;;;;4.30;2.10;;;28.50;53.00;;;;;;5067279;28;20039;-76
2022/07/23 11:38:02;;;;;;;4.00;1.80;;;28.70;46.00;;;;;;5066823;28;20024;-76
2022/07/23 11:40:30;;;;;;;3.20;1.13;;;28.70;45.20;;;;;;5065883;28;20041;-76
2022/07/23 11:43:03;;;;;;;3.25;1.15;;;28.70;50.60;;;;;;5061908;28;20479;-76
2022/07/23 11:45:44;;;;;;;2.80;1.35;;;28.90;54.70;;;;;;5066176;28;20032;-76
2022/07/23 11:48:33;;;;;;;3.20;1.30;;;29.00;51.30;;;;;;5061006;28;20569;-75
2022/07/23 11:50:59;;;;;;;4.80;1.52;;;28.90;49.40;;;;;;5065306;28;20024;-76
2022/07/23 11:53:26;;;;;;;4.10;1.80;;;28.80;45.60;;;;;;5062527;28;20047;-75
2022/07/23 11:56:02;;;;;;;2.00;1.10;;;28.80;44.80;;;;;;5063470;28;20078;-75
2022/07/23 11:58:27;;;;;;;2.78;1.38;;;28.90;48.70;;;;;;5061063;28;20052;-76
2022/07/23 12:00:55;;;;;;;1.75;0.95;;;28.80;52.00;;;;;;5064189;28;20080;-75
2022/07/23 12:03:21;;;;;;;1.98;0.80;;;28.60;54.90;;;;;;5059952;28;20554;-75
2022/07/23 12:05:47;;;;;;;5.07;1.67;;;28.30;56.00;;;;;;5067277;28;20017;-75
2022/07/23 12:08:12;;;;;;;4.03;1.75;;;28.10;54.80;;;;;;5071514;28;20051;-74
2022/07/23 12:10:42;;;;;;;3.92;1.70;;;28.20;52.00;;;;;;5070622;28;20537;-75
2022/07/23 12:13:13;;;;;;;2.83;1.55;;;28.40;49.10;;;;;;5067964;28;20036;-74
2022/07/23 12:15:48;;;;;;;2.33;1.25;;;28.60;50.30;;;;;;5071772;28;20033;-76
2022/07/23 12:18:19;;;;;;;3.40;1.90;;;28.60;48.50;;;;;;5071695;28;20016;-81
2022/07/23 12:20:50;;;;;;;3.50;1.60;;;28.60;46.70;;;;;;5069010;28;20032;-76
2022/07/23 12:23:18;;;;;;;4.95;1.60;;;28.60;45.30;;;;;;5062789;28;20035;-76
2022/07/23 12:25:45;;;;;;;2.85;1.60;;;28.40;46.80;;;;;;5055011;28;20551;-74
2022/07/23 12:28:21;;;;;;;1.67;0.85;;;28.30;48.50;;;;;;5061561;28;20021;-76
2022/07/23 12:30:48;;;;;;;2.10;1.17;;;28.40;51.20;;;;;;5062546;28;20078;-77
2022/07/23 12:33:23;;;;;;;3.35;1.60;;;28.50;50.60;;;;;;5062173;28;20028;-75
2022/07/23 12:35:49;;;;;;;2.38;1.20;;;28.60;47.00;;;;;;5061196;28;20639;-74
2022/07/23 12:38:17;;;;;;;1.90;0.90;;;28.80;49.40;;;;;;5064435;28;20009;-77
2022/07/23 12:40:48;;;;;;;4.20;1.42;;;28.90;49.10;;;;;;5071439;28;20132;-75
2022/07/23 12:43:24;;;;;;;2.40;1.48;;;28.90;45.80;;;;;;5069946;28;20062;-75
2022/07/23 12:45:53;;;;;;;3.88;1.95;;;28.70;52.60;;;;;;5070134;28;20608;-75
2022/07/23 12:48:26;;;;;;;5.23;1.73;;;28.70;47.60;;;;;;5070761;28;20082;-75
2022/07/23 12:51:00;;;;;;;4.70;1.38;;;28.70;44.40;;;;;;5070915;28;20275;-75
2022/07/23 12:53:28;;;;;;;2.92;1.55;;;28.80;46.10;;;;;;5070939;28;20063;-75
2022/07/23 12:56:05;;;;;;;2.13;1.27;;;29.10;45.30;;;;;;5071042;28;20037;-75
2022/07/23 12:58:58;;;;;;;2.72;1.10;;;29.30;45.20;;;;;;5069112;28;20097;-76